Time;durP1;ratioP1;P1;durP2;ratioP2;P2;SDS_P1;SDS_P2;PMS_P1;PMS_P2;Temp;Humidity;BMP_temperature;BMP_pressure;BME280_temperature;BME280_humidity;BME280_pressure;Samples;Min_cycle;Max_cycle;Signal;HPM_P1;HPM_P2
2022/06/23 00:02:21;;;;;;;17.70;8.33;;;;;;;25.16;57.22;98966.34;5072807;28;20574;-56
2022/06/23 00:04:53;;;;;;;18.30;8.50;;;;;;;25.17;57.25;98972.47;5072956;28;20188;-66
2022/06/23 00:07:24;;;;;;;10.00;8.40;;;;;;;25.18;57.45;98974.19;5072851;28;20176;-67
2022/06/23 00:09:52;;;;;;;11.80;8.23;;;;;;;25.16;57.76;98963.72;5073232;28;20188;-65
2022/06/23 00:12:29;;;;;;;16.83;8.80;;;;;;;25.21;57.28;98974.88;5072676;28;20183;-55
2022/06/23 00:15:15;;;;;;;16.00;8.80;;;;;;;25.07;56.86;98948.44;5058775;28;20714;-55
2022/06/23 00:17:47;;;;;;;13.60;8.63;;;;;;;25.24;57.34;98984.41;5072833;28;20223;-55
2022/06/23 00:20:17;;;;;;;11.33;8.50;;;;;;;25.22;57.66;98968.69;5072987;28;20416;-55
2022/06/23 00:22:47;;;;;;;16.80;9.47;;;;;;;25.23;57.50;98965.13;5072973;28;20200;-56
2022/06/23 00:25:34;;;;;;;16.30;10.00;;;;;;;25.23;57.22;98956.38;5072793;28;20269;-56
2022/06/23 00:28:02;;;;;;;16.60;10.43;;;;;;;25.28;57.25;98964.03;5072356;28;20430;-56
2022/06/23 00:30:35;;;;;;;14.20;8.13;;;;;;;25.32;56.52;98958.53;5072859;28;20195;-56
2022/06/23 00:33:08;;;;;;;12.70;8.67;;;;;;;25.37;56.46;98967.03;5072468;28;20689;-56
2022/06/23 00:35:35;;;;;;;10.80;9.00;;;;;;;25.34;56.23;98950.56;5072661;28;20191;-56
2022/06/23 00:38:02;;;;;;;17.80;9.47;;;;;;;25.32;55.94;98953.28;5072443;28;20268;-55
2022/06/23 00:40:29;;;;;;;12.60;8.17;;;;;;;25.30;56.26;98946.41;5072001;28;20214;-55
2022/06/23 00:43:00;;;;;;;15.17;9.17;;;;;;;25.27;56.47;98943.94;5072327;28;20196;-55
2022/06/23 00:45:34;;;;;;;17.80;9.40;;;;;;;25.20;56.59;98941.63;5072319;28;20641;-55
2022/06/23 00:48:09;;;;;;;11.93;9.00;;;;;;;25.19;56.40;98941.69;5072336;28;20187;-56
2022/06/23 00:50:39;;;;;;;13.40;8.90;;;;;;;25.13;56.59;98940.22;5072322;28;20195;-55
2022/06/23 00:53:19;;;;;;;13.47;8.23;;;;;;;25.20;55.73;98953.91;5072254;28;20199;-55
2022/06/23 00:55:54;;;;;;;16.67;8.57;;;;;;;25.14;56.15;98941.94;5072277;28;20413;-56
2022/06/23 00:58:33;;;;;;;10.43;7.77;;;;;;;25.14;56.34;98944.56;5071825;28;20218;-56
2022/06/23 01:01:06;;;;;;;18.37;8.97;;;;;;;25.13;56.09;98944.66;5072026;28;20260;-55
2022/06/23 01:03:40;;;;;;;19.00;7.90;;;;;;;25.08;55.76;98938.75;5052019;28;20191;-55
2022/06/23 01:06:15;;;;;;;16.67;8.20;;;;;;;25.13;55.92;98945.47;5051874;28;20666;-55
2022/06/23 01:08:48;;;;;;;15.40;8.30;;;;;;;25.14;55.66;98938.44;5052058;28;20210;-55
2022/06/23 01:11:30;;;;;;;15.10;8.40;;;;;;;25.09;56.01;98941.31;5052113;28;20211;-55
2022/06/23 01:14:11;;;;;;;14.30;8.30;;;;;;;25.11;56.13;98935.97;5051943;28;20636;-55
2022/06/23 01:16:44;;;;;;;15.00;8.10;;;;;;;25.13;56.65;98949.91;5051814;28;20275;-56
2022/06/23 01:19:35;;;;;;;13.50;8.07;;;;;;;25.10;56.64;98950.06;5051583;28;20219;-55
2022/06/23 01:22:05;;;;;;;14.70;9.00;;;;;;;25.05;56.92;98950.28;5051624;28;20215;-55
2022/06/23 01:24:40;;;;;;;12.73;8.37;;;;;;;25.05;57.02;98955.53;5051568;28;20666;-55
2022/06/23 01:27:25;;;;;;;10.67;8.40;;;;;;;25.07;56.57;98950.22;5051564;28;20628;-55
2022/06/23 01:29:56;;;;;;;11.37;8.60;;;;;;;24.92;57.35;98946.56;5051570;28;20203;-60
2022/06/23 01:32:27;;;;;;;12.93;8.30;;;;;;;24.92;57.68;98945.72;5051406;28;20192;-55
2022/06/23 01:35:02;;;;;;;15.50;9.30;;;;;;;24.96;57.53;98939.41;5051421;28;20721;-55
2022/06/23 01:37:34;;;;;;;11.63;8.17;;;;;;;24.90;57.51;98932.66;5051415;28;20195;-55
2022/06/23 01:40:10;;;;;;;14.80;9.52;;;;;;;24.97;56.92;98934.03;5050350;28;20436;-55
2022/06/23 01:42:44;;;;;;;12.97;7.97;;;;;;;25.05;56.75;98937.13;5051270;28;20222;-56
2022/06/23 01:45:21;;;;;;;14.43;8.77;;;;;;;25.05;57.02;98944.19;5051110;28;20223;-55
2022/06/23 01:47:53;;;;;;;17.63;8.40;;;;;;;25.05;56.96;98934.50;5051065;28;20183;-55
2022/06/23 01:50:30;;;;;;;14.13;8.47;;;;;;;24.98;56.39;98925.25;5056982;28;20236;-55
2022/06/23 01:53:13;;;;;;;15.70;9.20;;;;;;;25.02;56.01;98921.53;5065403;28;20194;-55
2022/06/23 01:55:59;;;;;;;12.07;8.07;;;;;;;25.00;56.47;98933.91;5068627;28;20649;-55
2022/06/23 01:58:30;;;;;;;11.17;8.93;;;;;;;24.95;57.22;98932.44;5069660;28;20215;-54
2022/06/23 02:01:03;;;;;;;13.13;7.87;;;;;;;24.87;57.51;98934.59;5068203;28;20542;-54
2022/06/23 02:03:37;;;;;;;14.70;7.80;;;;;;;24.81;57.98;98940.16;5070247;28;20187;-55
2022/06/23 02:06:14;;;;;;;13.90;8.83;;;;;;;24.75;57.85;98949.16;5070352;28;20196;-55
2022/06/23 02:08:48;;;;;;;11.00;8.03;;;;;;;24.74;58.11;98942.22;5068453;28;20438;-55
2022/06/23 02:11:20;;;;;;;14.67;8.43;;;;;;;24.78;58.01;98935.88;5067662;28;21004;-56
2022/06/23 02:13:53;;;;;;;12.53;9.13;;;;;;;24.74;57.75;98949.25;5066771;28;20257;-56
2022/06/23 02:16:29;;;;;;;15.93;8.27;;;;;;;24.78;57.76;98948.19;5070470;28;20199;-66
2022/06/23 02:19:00;;;;;;;13.20;8.90;;;;;;;24.74;57.73;98949.25;5070589;28;20755;-66
2022/06/23 02:21:35;;;;;;;14.60;8.63;;;;;;;24.74;57.88;98951.88;5070498;28;20246;-66
2022/06/23 02:24:08;;;;;;;16.50;8.57;;;;;;;24.68;58.24;98947.78;5070637;28;20187;-66
2022/06/23 02:26:41;;;;;;;9.83;8.10;;;;;;;24.70;57.87;98940.66;5070295;28;20199;-66
2022/06/23 02:29:20;;;;;;;13.43;8.93;;;;;;;24.64;58.43;98933.94;5070672;28;20233;-66
2022/06/23 02:31:54;;;;;;;15.83;8.00;;;;;;;24.70;57.46;98945.06;5070940;28;20195;-66
2022/06/23 02:34:28;;;;;;;12.13;7.63;;;;;;;24.54;57.19;98926.59;5070274;28;20669;-65
2022/06/23 02:37:02;;;;;;;14.73;8.87;;;;;;;24.64;56.98;98933.09;5070602;28;20183;-65
2022/06/23 02:39:36;;;;;;;15.53;8.50;;;;;;;24.62;56.60;98948.06;5070523;28;20219;-66
2022/06/23 02:42:14;;;;;;;14.37;7.90;;;;;;;24.62;57.27;98935.78;5070558;28;20281;-66
2022/06/23 02:45:03;;;;;;;13.23;8.60;;;;;;;24.63;56.85;98937.50;5070163;28;20767;-66
2022/06/23 02:47:43;;;;;;;18.67;8.87;;;;;;;24.59;57.71;98929.84;5067195;28;20217;-67
2022/06/23 02:50:27;;;;;;;15.50;8.57;;;;;;;24.56;57.22;98922.97;5069999;28;20441;-66
2022/06/23 02:53:33;;;;;;;15.97;8.43;;;;;;;24.60;57.35;98919.28;5070218;28;20282;-66
2022/06/23 02:56:19;;;;;;;10.27;7.90;;;;;;;24.58;57.48;98912.41;5020114;28;20191;-66
2022/06/23 02:58:53;;;;;;;9.97;7.17;;;;;;;24.60;56.95;98924.53;5070272;28;20273;-65
2022/06/23 03:01:25;;;;;;;14.07;9.47;;;;;;;24.58;57.70;98920.28;5069971;28;20269;-65
2022/06/23 03:04:02;;;;;;;15.37;9.30;;;;;;;24.55;57.03;98907.28;5069531;28;20188;-65
2022/06/23 03:06:38;;;;;;;11.10;8.17;;;;;;;24.65;56.84;98926.91;5070098;28;20187;-65
2022/06/23 03:09:10;;;;;;;14.40;8.60;;;;;;;24.62;57.32;98917.41;5070121;28;20191;-65
2022/06/23 03:11:52;;;;;;;15.10;8.60;;;;;;;24.68;57.45;98929.38;5069953;28;20191;-65
2022/06/23 03:14:29;;;;;;;12.60;8.93;;;;;;;24.67;57.95;98922.41;5070195;28;20191;-65
2022/06/23 03:17:03;;;;;;;17.43;9.63;;;;;;;24.73;57.61;98930.00;5070046;28;20202;-65
2022/06/23 03:19:37;;;;;;;21.40;9.75;;;;;;;24.83;57.18;98927.81;5068981;28;20478;-65
2022/06/23 03:22:10;;;;;;;14.23;8.67;;;;;;;24.91;57.19;98931.75;5070063;28;20199;-65
2022/06/23 03:24:44;;;;;;;12.17;8.43;;;;;;;24.92;57.16;98929.94;5070266;28;20314;-66
2022/06/23 03:27:21;;;;;;;13.63;8.47;;;;;;;24.89;57.79;98938.84;5070045;28;20223;-65
2022/06/23 03:29:54;;;;;;;19.83;8.73;;;;;;;24.89;57.52;98938.84;5069151;28;20286;-65
2022/06/23 03:32:28;;;;;;;19.63;9.20;;;;;;;24.96;57.42;98937.63;5070147;28;20590;-65
2022/06/23 03:35:03;;;;;;;13.93;8.07;;;;;;;25.04;57.33;98934.59;5069516;28;20195;-66
2022/06/23 03:37:38;;;;;;;13.63;7.90;;;;;;;25.06;57.07;98940.63;5069700;28;20186;-66
2022/06/23 03:43:13;;;;;;;17.40;8.50;;;;;;;25.09;56.80;98946.56;5069646;28;20207;-66
2022/06/23 03:45:46;;;;;;;14.37;8.80;;;;;;;25.09;56.73;98954.47;5069662;28;20325;-66
2022/06/23 03:48:17;;;;;;;11.57;8.47;;;;;;;25.05;56.95;98960.78;5069659;28;20257;-66
2022/06/23 03:50:51;;;;;;;16.07;8.57;;;;;;;25.11;55.88;98957.84;5069838;28;20206;-66
2022/06/23 03:53:22;;;;;;;12.97;8.10;;;;;;;25.13;56.12;98965.69;5069900;28;20286;-65
2022/06/23 03:55:54;;;;;;;13.33;7.90;;;;;;;25.04;55.48;98945.13;5069453;28;20601;-66
2022/06/23 03:58:31;;;;;;;19.60;8.17;;;;;;;25.13;55.37;98970.94;5068398;28;20191;-65
2022/06/23 04:01:03;;;;;;;11.75;8.00;;;;;;;25.22;54.96;98970.44;5068831;28;20447;-66
2022/06/23 04:03:35;;;;;;;11.97;7.77;;;;;;;25.23;55.08;98964.28;5069641;28;20204;-65
2022/06/23 04:06:37;;;;;;;11.73;7.87;;;;;;;25.28;55.16;98974.53;5069576;28;20195;-65
2022/06/23 04:09:11;;;;;;;13.97;8.33;;;;;;;25.30;55.40;98972.72;5069568;28;20201;-65
2022/06/23 04:11:53;;;;;;;15.60;8.57;;;;;;;25.29;55.30;98979.75;5069279;28;20206;-66
2022/06/23 04:14:28;;;;;;;15.60;8.33;;;;;;;25.39;55.17;98983.59;5069450;28;20665;-66
2022/06/23 04:17:05;;;;;;;13.77;8.80;;;;;;;25.47;55.58;98980.59;5071567;28;20574;-65
2022/06/23 04:19:33;;;;;;;14.00;8.37;;;;;;;25.48;55.21;98977.88;5072713;28;20211;-65
2022/06/23 04:22:08;;;;;;;13.93;8.87;;;;;;;25.52;55.00;98968.88;5072602;28;20253;-65
2022/06/23 04:24:37;;;;;;;13.60;8.97;;;;;;;25.66;55.33;98970.78;5072649;28;20192;-65
2022/06/23 04:27:14;;;;;;;15.23;9.53;;;;;;;25.71;54.96;98969.59;5072534;28;20635;-67
2022/06/23 04:29:42;;;;;;;14.97;9.00;;;;;;;25.69;54.93;98966.22;5073741;28;20456;-66
2022/06/23 04:32:14;;;;;;;15.23;8.73;;;;;;;25.67;55.31;98960.19;5073695;28;20522;-65
2022/06/23 04:34:50;;;;;;;15.87;8.80;;;;;;;25.62;55.69;98966.63;5072585;28;20622;-65
2022/06/23 04:37:32;;;;;;;13.57;8.17;;;;;;;25.63;55.63;98969.16;5072482;28;20202;-67
2022/06/23 04:40:08;;;;;;;14.63;10.10;;;;;;;25.59;55.80;98959.75;5072295;28;20211;-66
2022/06/23 04:42:44;;;;;;;16.10;8.60;;;;;;;25.60;55.84;98955.34;5072237;28;20197;-65
2022/06/23 04:45:35;;;;;;;15.43;8.13;;;;;;;25.64;55.97;98957.72;5071974;28;20223;-67
2022/06/23 04:48:06;;;;;;;13.80;8.50;;;;;;;25.70;55.78;98961.81;5072048;28;20257;-66
2022/06/23 04:50:41;;;;;;;12.63;8.63;;;;;;;25.78;55.57;98954.34;5071794;28;20188;-66
2022/06/23 04:53:19;;;;;;;12.13;9.47;;;;;;;25.84;55.41;98956.66;5071724;28;20175;-66
2022/06/23 04:55:55;;;;;;;14.13;8.97;;;;;;;25.84;54.92;98956.66;5070060;28;20187;-67
2022/06/23 04:58:24;;;;;;;18.80;8.20;;;;;;;25.86;55.13;98960.03;5067354;28;20202;-68
2022/06/23 05:00:53;;;;;;;16.83;9.77;;;;;;;25.94;54.94;98963.09;5070298;28;20286;-67
2022/06/23 05:03:26;;;;;;;13.77;8.87;;;;;;;25.96;55.08;98963.03;5071117;28;20199;-68
2022/06/23 05:05:59;;;;;;;17.73;10.20;;;;;;;26.02;54.90;98979.34;5065384;28;20196;-68
2022/06/23 05:08:32;;;;;;;16.63;9.73;;;;;;;26.11;54.47;98970.94;5050552;28;20941;-67
2022/06/23 05:11:04;;;;;;;16.33;8.77;;;;;;;26.30;53.53;98979.56;5051202;28;20204;-68
2022/06/23 05:13:40;;;;;;;17.43;8.83;;;;;;;26.35;53.01;98988.03;5050240;28;20578;-67
2022/06/23 05:16:10;;;;;;;12.17;9.10;;;;;;;26.43;52.90;98982.34;5051527;28;20210;-67
2022/06/23 05:18:45;;;;;;;12.03;9.03;;;;;;;26.57;52.66;98978.91;5051330;28;20203;-67
2022/06/23 05:21:18;;;;;;;16.40;8.43;;;;;;;26.65;51.99;98981.97;5051393;28;20254;-66
2022/06/23 05:23:53;;;;;;;9.43;8.17;;;;;;;26.72;52.01;98988.59;5051145;28;20176;-66
2022/06/23 05:26:25;;;;;;;17.57;8.03;;;;;;;26.76;51.82;98982.19;5050830;28;20192;-66
2022/06/23 05:28:57;;;;;;;12.77;8.23;;;;;;;26.78;51.53;98969.84;5051390;28;20192;-66
2022/06/23 05:31:29;;;;;;;12.93;8.67;;;;;;;26.81;52.13;98977.56;5076195;28;20249;-67
2022/06/23 05:34:01;;;;;;;15.93;7.73;;;;;;;26.89;51.11;98984.06;5091398;28;20665;-66
2022/06/23 05:36:34;;;;;;;14.83;8.20;;;;;;;26.92;50.32;98988.31;5090914;28;20320;-67
2022/06/23 05:39:12;;;;;;;15.83;8.07;;;;;;;26.85;49.89;98986.97;5091156;28;20226;-67
2022/06/23 05:41:43;;;;;;;12.43;7.40;;;;;;;27.10;50.04;98992.53;5090013;28;20436;-67
2022/06/23 05:44:17;;;;;;;14.48;8.18;;;;;;;27.31;49.01;98990.38;5090883;28;20244;-67
2022/06/23 05:46:47;;;;;;;12.33;8.17;;;;;;;27.45;48.83;98990.44;5091146;28;20186;-66
2022/06/23 05:49:18;;;;;;;10.55;7.30;;;;;;;27.58;48.49;98995.84;5089434;28;20187;-66
2022/06/23 05:51:53;;;;;;;17.13;7.47;;;;;;;27.65;48.44;98976.91;5061133;28;20203;-66
2022/06/23 05:54:25;;;;;;;11.52;7.30;;;;;;;27.77;47.74;98980.59;5067798;28;20249;-66
2022/06/23 05:56:59;;;;;;;13.20;7.70;;;;;;;27.83;47.08;98980.19;5069571;28;21069;-66
2022/06/23 05:59:32;;;;;;;10.80;7.78;;;;;;;27.94;47.00;98975.94;5067891;28;20211;-67
2022/06/23 06:02:05;;;;;;;13.02;7.05;;;;;;;28.03;46.50;98969.25;5070350;28;20180;-67
2022/06/23 06:04:39;;;;;;;13.38;7.97;;;;;;;28.03;45.83;98948.13;5066068;28;20239;-67
2022/06/23 06:07:06;;;;;;;9.15;6.70;;;;;;;28.19;46.25;98975.25;5053685;28;20621;-67
2022/06/23 06:09:40;;;;;;;8.90;6.60;;;;;;;28.25;45.24;98969.59;5069912;28;20195;-67
2022/06/23 06:12:13;;;;;;;9.82;6.28;;;;;;;28.32;43.21;98970.88;5069791;28;20235;-66
2022/06/23 06:14:44;;;;;;;11.35;6.57;;;;;;;28.45;43.12;98965.66;5069199;28;20195;-66
2022/06/23 06:17:18;;;;;;;11.48;6.15;;;;;;;28.61;42.58;98983.06;5070126;28;20917;-69
2022/06/23 06:19:45;;;;;;;11.63;6.68;;;;;;;28.74;41.95;98982.28;5069490;28;20306;-67
2022/06/23 06:22:27;;;;;;;9.75;6.00;;;;;;;28.72;41.88;98978.91;5069940;28;20192;-68
2022/06/23 06:24:57;;;;;;;13.63;6.63;;;;;;;28.77;42.91;98968.88;5063698;28;20621;-68
2022/06/23 06:27:24;;;;;;;6.60;5.95;;;;;;;28.89;42.20;98974.22;5069720;28;20206;-66
2022/06/23 06:29:52;;;;;;;11.43;5.38;;;;;;;28.92;39.86;98975.78;5064969;28;20195;-67
2022/06/23 06:32:33;;;;;;;8.48;6.65;;;;;;;28.85;41.69;98993.00;5068297;28;20199;-66
2022/06/23 06:35:08;;;;;;;11.45;6.10;;;;;;;28.65;42.47;98984.59;5068082;28;20697;-66
2022/06/23 06:37:39;;;;;;;11.38;6.75;;;;;;;28.68;41.70;98980.88;5064787;28;20199;-66
2022/06/23 06:40:08;;;;;;;10.43;6.63;;;;;;;28.72;42.29;98978.91;5069000;28;20203;-67
2022/06/23 06:42:40;;;;;;;10.63;6.38;;;;;;;28.80;41.94;98973.94;5063343;28;20202;-68
2022/06/23 06:45:10;;;;;;;15.48;6.57;;;;;;;28.85;42.06;98988.56;5067068;28;20219;-67
2022/06/23 06:47:39;;;;;;;8.98;6.03;;;;;;;28.82;42.84;98999.34;5069511;28;20302;-67
2022/06/23 06:50:17;;;;;;;14.77;7.28;;;;;;;28.70;43.59;99007.25;5068952;28;20192;-68
2022/06/23 06:52:44;;;;;;;11.32;7.20;;;;;;;28.54;43.95;99008.19;5066080;28;20816;-68
2022/06/23 06:55:18;;;;;;;7.05;6.32;;;;;;;28.50;44.23;99035.78;5069374;28;20184;-67
2022/06/23 06:57:52;;;;;;;11.43;7.57;;;;;;;28.41;43.83;99054.03;5066861;28;20913;-66
2022/06/23 07:00:24;;;;;;;11.00;7.35;;;;;;;28.21;45.46;99054.44;5049816;28;20341;-67
2022/06/23 07:02:57;;;;;;;10.48;6.93;;;;;;;28.00;46.12;99083.84;5049665;28;20196;-67
2022/06/23 07:05:31;;;;;;;13.13;6.95;;;;;;;27.78;46.26;99096.66;5049454;28;20195;-67
2022/06/23 07:08:16;;;;;;;14.43;7.30;;;;;;;27.58;48.43;99117.28;5052107;28;20567;-67
2022/06/23 07:10:49;;;;;;;15.00;7.93;;;;;;;27.35;51.20;99156.38;5066961;28;20302;-67
2022/06/23 07:13:22;;;;;;;18.17;8.98;;;;;;;26.81;55.36;99178.78;5069937;28;20212;-67
2022/06/23 07:15:54;;;;;;;10.00;8.43;;;;;;;26.50;57.79;99212.97;5071245;28;20196;-66
2022/06/23 07:18:28;;;;;;;15.13;8.02;;;;;;;26.08;56.84;99218.66;5071876;28;20267;-66
2022/06/23 07:21:02;;;;;;;11.95;9.00;;;;;;;25.78;58.15;99241.25;5067857;28;20450;-66
2022/06/23 07:23:34;;;;;;;14.35;10.15;;;;;;;25.58;59.65;99271.19;5066858;28;20199;-66
2022/06/23 07:26:17;;;;;;;14.57;11.03;;;;;;;25.18;61.41;99287.97;5069021;28;20196;-67
2022/06/23 07:28:49;;;;;;;12.43;9.70;;;;;;;24.93;63.40;99302.31;5069191;28;20642;-66
2022/06/23 07:31:21;;;;;;;13.50;9.17;;;;;;;24.73;63.93;99304.91;5069496;28;20214;-66
2022/06/23 07:33:54;;;;;;;13.67;8.50;;;;;;;24.55;64.98;99278.56;5069531;28;20210;-66
2022/06/23 07:36:27;;;;;;;24.47;10.33;;;;;;;24.60;68.85;99263.44;5069433;28;20206;-67
2022/06/23 07:38:59;;;;;;;18.00;9.87;;;;;;;24.49;70.15;99243.81;5069400;28;20196;-67
2022/06/23 07:41:35;;;;;;;13.77;10.80;;;;;;;24.47;72.50;99237.78;5069369;28;20543;-67
2022/06/23 07:44:05;;;;;;;12.93;10.10;;;;;;;24.38;73.23;99225.03;5068990;28;20230;-67
2022/06/23 07:46:35;;;;;;;13.10;8.93;;;;;;;24.28;73.76;99206.19;5069420;28;20196;-67
2022/06/23 07:49:02;;;;;;;21.10;10.43;;;;;;;24.12;76.30;99170.19;5069809;28;20218;-67
2022/06/23 07:51:29;;;;;;;9.87;8.83;;;;;;;24.00;76.40;99159.28;5072499;28;20662;-67
2022/06/23 07:53:57;;;;;;;13.33;9.00;;;;;;;23.99;76.94;99148.84;5072777;28;20187;-66
2022/06/23 07:56:28;;;;;;;16.00;10.13;;;;;;;23.82;77.86;99153.94;5073194;28;20273;-67
2022/06/23 07:58:59;;;;;;;10.93;9.83;;;;;;;23.65;77.83;99149.41;5073064;28;20203;-66
2022/06/23 08:01:31;;;;;;;15.47;9.93;;;;;;;23.52;78.84;99119.38;5073055;28;20240;-66
2022/06/23 08:04:06;;;;;;;14.20;9.40;;;;;;;23.52;78.86;99139.50;5072498;28;20187;-67
2022/06/23 08:06:35;;;;;;;16.37;9.97;;;;;;;23.46;80.11;99127.50;5072770;28;20238;-66
2022/06/23 08:09:08;;;;;;;14.60;9.10;;;;;;;23.39;80.06;99134.78;5072745;28;20214;-67
2022/06/23 08:14:25;;;;;;;12.07;9.43;;;;;;;23.21;82.14;99138.13;5038957;28;20199;-66
2022/06/23 08:16:51;;;;;;;17.10;10.23;;;;;;;23.24;83.08;99139.78;5072697;28;20861;-66
2022/06/23 08:19:33;;;;;;;14.13;9.30;;;;;;;23.19;82.07;99147.81;5072789;28;20452;-66
2022/06/23 08:22:11;;;;;;;18.60;10.20;;;;;;;23.18;83.64;99150.50;5072307;28;20187;-66
2022/06/23 08:24:39;;;;;;;13.20;9.27;;;;;;;23.09;82.87;99167.47;5072540;28;20191;-66
2022/06/23 08:27:10;;;;;;;14.67;10.37;;;;;;;23.08;83.28;99172.75;5072447;28;20282;-67
2022/06/23 08:29:42;;;;;;;16.90;11.32;;;;;;;23.15;83.86;99176.84;5071854;28;20442;-66
2022/06/23 08:32:10;;;;;;;14.47;11.13;;;;;;;23.17;85.29;99181.09;5072564;28;20207;-67
2022/06/23 08:34:40;;;;;;;20.03;10.23;;;;;;;23.14;83.83;99185.63;5072107;28;20195;-57
2022/06/23 08:37:15;;;;;;;12.63;8.87;;;;;;;23.13;81.63;99213.59;5072009;28;20202;-56
2022/06/23 08:39:48;;;;;;;19.73;9.70;;;;;;;23.09;80.22;99227.75;5071980;28;20575;-56
2022/06/23 08:42:23;;;;;;;15.43;9.80;;;;;;;22.91;83.69;99252.88;5071988;28;20192;-56
2022/06/23 08:44:57;;;;;;;14.30;8.87;;;;;;;22.63;83.81;99249.59;5069321;28;20239;-57
2022/06/23 08:47:38;;;;;;;11.80;9.47;;;;;;;22.62;82.97;99231.25;5066183;28;20191;-57
2022/06/23 08:50:12;;;;;;;10.67;8.13;;;;;;;22.65;82.53;99245.13;5067634;28;20195;-57
2022/06/23 08:52:47;;;;;;;13.43;8.43;;;;;;;22.45;80.75;99223.16;5070497;28;20179;-57
2022/06/23 08:55:21;;;;;;;21.37;15.83;;;;;;;22.18;83.01;99218.00;5070934;28;20657;-57
2022/06/23 08:57:54;;;;;;;18.27;11.17;;;;;;;22.09;84.84;99234.00;5067833;28;20658;-55
2022/06/23 09:00:28;;;;;;;17.07;9.87;;;;;;;22.13;85.98;99251.34;5072146;28;20199;-66
2022/06/23 09:03:01;;;;;;;12.00;9.10;;;;;;;22.15;83.66;99248.66;5068138;28;20225;-67
2022/06/23 09:05:39;;;;;;;12.52;9.05;;;;;;;22.22;84.13;99231.84;5070953;28;20448;-67
2022/06/23 09:08:12;;;;;;;14.73;8.77;;;;;;;22.20;86.05;99252.81;5070908;28;20282;-67
2022/06/23 09:10:49;;;;;;;16.27;8.90;;;;;;;22.18;85.68;99218.00;5070988;28;20192;-66
2022/06/23 09:13:31;;;;;;;17.43;8.73;;;;;;;22.17;85.29;99194.47;5069191;28;20277;-67
2022/06/23 09:16:20;;;;;;;16.70;10.87;;;;;;;22.17;87.94;99170.94;5069278;28;20187;-66
2022/06/23 09:19:08;;;;;;;15.73;10.73;;;;;;;22.10;88.73;99157.22;5067782;28;20180;-56
2022/06/23 09:21:47;;;;;;;16.13;11.00;;;;;;;22.15;91.58;99184.09;5068451;28;20606;-56
2022/06/23 09:24:33;;;;;;;20.83;11.93;;;;;;;22.20;92.87;99183.91;5068833;28;20191;-57
2022/06/23 09:27:12;;;;;;;17.17;12.07;;;;;;;22.07;91.68;99183.50;5067537;28;20450;-57
2022/06/23 09:29:55;;;;;;;17.60;11.23;;;;;;;22.12;92.21;99185.94;5063845;28;20245;-56
2022/06/23 09:32:34;;;;;;;16.47;11.20;;;;;;;22.21;92.74;99177.78;5066209;28;20191;-56
2022/06/23 09:35:27;;;;;;;18.53;11.83;;;;;;;22.30;93.17;99204.47;5068618;28;20188;-56
2022/06/23 09:38:16;;;;;;;17.53;11.47;;;;;;;22.34;92.15;99216.53;5069867;28;20192;-56
2022/06/23 09:41:01;;;;;;;16.07;11.23;;;;;;;22.37;92.26;99212.97;5068460;28;20254;-56
2022/06/23 09:43:55;;;;;;;17.13;12.32;;;;;;;22.55;92.54;99214.91;5067321;28;20464;-57
2022/06/23 09:46:44;;;;;;;21.17;13.53;;;;;;;22.77;91.56;99197.50;5069431;28;20184;-57
2022/06/23 09:49:27;;;;;;;21.30;13.37;;;;;;;23.09;91.07;99190.19;5061622;28;20557;-57
2022/06/23 09:52:36;;;;;;;13.83;9.57;;;;;;;23.44;83.44;99187.91;5066723;28;20192;-67
2022/06/23 09:55:39;;;;;;;13.20;10.57;;;;;;;23.31;84.91;99168.31;5070254;28;20241;-59
2022/06/23 09:58:29;;;;;;;16.13;12.67;;;;;;;23.76;86.65;99157.69;5074433;28;20295;-57
2022/06/23 10:01:13;;;;;;;15.30;11.20;;;;;;;23.89;86.03;99140.53;5070316;28;20211;-57
2022/06/23 10:03:56;;;;;;;13.10;11.70;;;;;;;24.05;88.24;99136.31;5070225;28;20253;-57
2022/06/23 10:06:47;;;;;;;18.80;15.00;;;;;;;24.33;87.70;99132.47;5065632;28;20210;-57
2022/06/23 10:09:27;;;;;;;16.30;11.63;;;;;;;24.73;83.52;99134.09;5066923;28;20681;-57
2022/06/23 10:12:15;;;;;;;12.88;9.65;;;;;;;24.90;76.43;99137.69;5066400;28;20429;-57
2022/06/23 10:15:00;;;;;;;12.47;8.50;;;;;;;25.22;75.63;99136.13;5067515;28;20215;-57
2022/06/23 10:17:52;;;;;;;9.33;8.43;;;;;;;25.32;73.07;99128.66;5069077;28;20187;-57
2022/06/23 10:20:40;;;;;;;11.83;8.53;;;;;;;25.11;72.37;99123.50;5066445;28;20511;-57
2022/06/23 10:23:24;;;;;;;9.70;8.73;;;;;;;25.27;72.46;99113.09;5051487;28;20200;-56
2022/06/23 10:26:10;;;;;;;15.53;9.53;;;;;;;25.14;72.66;99109.34;5049259;28;20199;-57
2022/06/23 10:29:05;;;;;;;14.60;9.70;;;;;;;24.98;74.41;99095.25;5049287;28;20192;-57
2022/06/23 10:31:49;;;;;;;13.13;9.33;;;;;;;25.13;73.97;99103.25;5049457;28;20282;-56
2022/06/23 10:34:37;;;;;;;12.00;8.87;;;;;;;25.29;72.39;99086.72;5050030;28;20188;-57
2022/06/23 10:37:32;;;;;;;13.13;9.77;;;;;;;25.06;73.56;99093.97;5049652;28;20192;-57
2022/06/23 10:40:34;;;;;;;15.03;10.77;;;;;;;24.91;75.82;99088.59;5053602;28;20195;-57
2022/06/23 10:43:20;;;;;;;13.87;12.37;;;;;;;24.79;76.45;99070.75;5057228;28;20198;-57
2022/06/23 10:45:51;;;;;;;18.40;13.17;;;;;;;25.14;77.74;99077.81;5064856;28;20260;-67
2022/06/23 10:48:44;;;;;;;16.83;12.63;;;;;;;25.32;75.85;99086.56;5066128;28;20198;-67
2022/06/23 10:51:24;;;;;;;16.03;13.50;;;;;;;25.67;75.33;99089.16;5068070;28;20225;-67
2022/06/23 10:54:14;;;;;;;16.60;12.23;;;;;;;25.63;74.19;99095.47;5066807;28;20562;-68
2022/06/23 10:56:57;;;;;;;15.57;12.60;;;;;;;25.45;74.94;99087.66;5063826;28;20278;-67
2022/06/23 10:59:42;;;;;;;16.03;12.03;;;;;;;25.40;75.69;99089.66;5069516;28;20286;-67
2022/06/23 11:02:39;;;;;;;14.07;11.57;;;;;;;25.30;75.38;99088.44;5067347;28;20219;-67
2022/06/23 11:05:28;;;;;;;15.30;12.67;;;;;;;25.43;74.75;99094.78;5068040;28;20249;-67
2022/06/23 11:08:08;;;;;;;21.43;13.13;;;;;;;25.35;74.34;99065.38;5060082;28;20199;-67
2022/06/23 11:10:50;;;;;;;14.20;12.63;;;;;;;25.51;73.90;99074.22;5049086;28;20195;-67
2022/06/23 11:13:31;;;;;;;16.90;11.90;;;;;;;25.33;73.30;99072.47;5059999;28;20563;-67
2022/06/23 11:16:13;;;;;;;15.57;10.83;;;;;;;25.39;73.16;99072.16;5069105;28;20276;-67
2022/06/23 11:18:56;;;;;;;13.85;10.57;;;;;;;25.43;71.62;99069.31;5069042;28;20361;-67
2022/06/23 11:21:35;;;;;;;16.70;11.10;;;;;;;25.20;70.37;99015.25;5062971;28;20215;-67
2022/06/23 11:24:06;;;;;;;11.50;10.10;;;;;;;25.61;70.70;99070.19;5052707;28;20447;-65
2022/06/23 11:26:54;;;;;;;14.27;10.30;;;;;;;25.69;70.33;99058.34;5059820;28;20199;-66
2022/06/23 11:29:38;;;;;;;15.27;10.30;;;;;;;25.06;70.77;99003.72;5055407;28;20547;-67
2022/06/23 11:32:19;;;;;;;15.50;11.30;;;;;;;25.63;71.35;99053.38;5052697;28;20337;-67
2022/06/23 11:35:07;;;;;;;13.43;10.30;;;;;;;26.06;68.74;99044.09;5052378;28;20548;-66
2022/06/23 11:37:53;;;;;;;14.47;10.10;;;;;;;26.54;67.78;99034.44;5069146;28;20200;-66
2022/06/23 11:40:38;;;;;;;13.67;10.80;;;;;;;27.02;65.81;99036.97;5069535;28;20196;-66
2022/06/23 11:43:17;;;;;;;17.20;9.90;;;;;;;27.16;63.99;99023.81;5072197;28;20195;-67
2022/06/23 11:46:00;;;;;;;16.00;9.97;;;;;;;27.05;63.30;99035.94;5058164;28;20196;-66
2022/06/23 11:48:52;;;;;;;16.27;9.70;;;;;;;26.64;64.93;99035.63;5068473;28;20195;-66
2022/06/23 11:51:31;;;;;;;12.13;8.73;;;;;;;26.57;64.62;99029.00;5065511;28;20218;-66
2022/06/23 11:54:16;;;;;;;14.43;9.80;;;;;;;26.70;64.26;99024.75;5072156;28;20453;-67
2022/06/23 11:57:00;;;;;;;13.60;8.97;;;;;;;27.10;63.83;99015.41;5072512;28;20199;-67
2022/06/23 11:59:43;;;;;;;14.47;8.77;;;;;;;26.97;62.61;99012.66;5072807;28;20183;-68
2022/06/23 12:02:10;;;;;;;12.93;8.87;;;;;;;26.83;62.47;99023.16;5071931;28;20215;-67
2022/06/23 12:05:07;;;;;;;11.13;8.30;;;;;;;26.90;63.17;99025.34;5072318;28;20638;-67
2022/06/23 12:08:02;;;;;;;11.47;8.23;;;;;;;26.73;63.18;99027.19;5072005;28;20206;-66
2022/06/23 12:10:32;;;;;;;12.60;8.07;;;;;;;27.05;62.81;99028.03;5071825;28;20202;-65
2022/06/23 12:13:02;;;;;;;10.63;8.43;;;;;;;27.05;61.77;99018.34;5072761;28;20195;-67
2022/06/23 12:15:33;;;;;;;11.23;7.43;;;;;;;27.59;59.93;99018.66;5071169;28;20203;-66